sensor_id;sensor_type;location;lat;lon;timestamp;temperature;humidity
11423;DHT22;5768;51.476;7.210;2023-04-03T00:04:53;4.60;18.70
11423;DHT22;5768;51.476;7.210;2023-04-03T00:09:59;4.60;18.90
11423;DHT22;5768;51.476;7.210;2023-04-03T00:15:01;4.60;18.80
11423;DHT22;5768;51.476;7.210;2023-04-03T00:20:07;4.30;18.80
11423;DHT22;5768;51.476;7.210;2023-04-03T00:25:10;4.50;18.60
11423;DHT22;5768;51.476;7.210;2023-04-03T00:30:15;4.50;18.70
11423;DHT22;5768;51.476;7.210;2023-04-03T00:35:20;4.40;18.80
11423;DHT22;5768;51.476;7.210;2023-04-03T00:40:25;4.30;18.90
11423;DHT22;5768;51.476;7.210;2023-04-03T00:45:32;4.30;19.20
11423;DHT22;5768;51.476;7.210;2023-04-03T00:50:39;4.10;19.30
11423;DHT22;5768;51.476;7.210;2023-04-03T00:55:44;4.40;19.50
11423;DHT22;5768;51.476;7.210;2023-04-03T01:00:54;4.40;19.30
11423;DHT22;5768;51.476;7.210;2023-04-03T01:06:00;4.40;19.20
11423;DHT22;5768;51.476;7.210;2023-04-03T01:11:03;4.50;19.00
11423;DHT22;5768;51.476;7.210;2023-04-03T01:16:09;4.50;19.20
11423;DHT22;5768;51.476;7.210;2023-04-03T01:27:10;4.60;18.80
11423;DHT22;5768;51.476;7.210;2023-04-03T01:32:14;4.60;18.90
11423;DHT22;5768;51.476;7.210;2023-04-03T01:37:16;4.60;19.00
11423;DHT22;5768;51.476;7.210;2023-04-03T01:42:18;4.50;18.90
11423;DHT22;5768;51.476;7.210;2023-04-03T01:47:23;4.50;19.10
11423;DHT22;5768;51.476;7.210;2023-04-03T01:52:25;4.50;19.00
11423;DHT22;5768;51.476;7.210;2023-04-03T01:57:27;4.40;19.10
11423;DHT22;5768;51.476;7.210;2023-04-03T02:02:31;4.50;19.00
11423;DHT22;5768;51.476;7.210;2023-04-03T02:07:34;4.40;18.70
11423;DHT22;5768;51.476;7.210;2023-04-03T02:12:38;4.40;18.60
11423;DHT22;5768;51.476;7.210;2023-04-03T02:17:41;4.40;18.90
11423;DHT22;5768;51.476;7.210;2023-04-03T02:22:44;4.40;18.70
11423;DHT22;5768;51.476;7.210;2023-04-03T02:27:49;4.30;18.70
11423;DHT22;5768;51.476;7.210;2023-04-03T02:32:53;4.30;18.60
11423;DHT22;5768;51.476;7.210;2023-04-03T02:37:56;4.20;18.60
11423;DHT22;5768;51.476;7.210;2023-04-03T02:42:58;4.20;18.60
11423;DHT22;5768;51.476;7.210;2023-04-03T02:48:02;4.20;18.70
11423;DHT22;5768;51.476;7.210;2023-04-03T02:53:04;4.10;18.60
11423;DHT22;5768;51.476;7.210;2023-04-03T02:58:07;4.00;18.20
11423;DHT22;5768;51.476;7.210;2023-04-03T03:03:11;4.00;18.30
11423;DHT22;5768;51.476;7.210;2023-04-03T03:08:14;4.00;18.30
11423;DHT22;5768;51.476;7.210;2023-04-03T03:13:16;4.10;18.30
11423;DHT22;5768;51.476;7.210;2023-04-03T03:18:20;4.00;18.30
11423;DHT22;5768;51.476;7.210;2023-04-03T03:23:24;4.10;18.30
11423;DHT22;5768;51.476;7.210;2023-04-03T03:28:27;4.00;18.30
11423;DHT22;5768;51.476;7.210;2023-04-03T03:33:31;4.10;18.30
11423;DHT22;5768;51.476;7.210;2023-04-03T03:38:34;4.00;18.30
11423;DHT22;5768;51.476;7.210;2023-04-03T03:43:36;4.00;18.30
11423;DHT22;5768;51.476;7.210;2023-04-03T03:48:40;3.90;18.20
11423;DHT22;5768;51.476;7.210;2023-04-03T03:53:42;3.80;18.30
11423;DHT22;5768;51.476;7.210;2023-04-03T03:58:44;3.80;18.20
11423;DHT22;5768;51.476;7.210;2023-04-03T04:03:48;3.70;18.30
11423;DHT22;5768;51.476;7.210;2023-04-03T04:08:50;3.80;18.30
11423;DHT22;5768;51.476;7.210;2023-04-03T04:13:53;3.90;18.20
11423;DHT22;5768;51.476;7.210;2023-04-03T04:18:56;3.60;18.30
11423;DHT22;5768;51.476;7.210;2023-04-03T04:23:58;3.50;18.30
11423;DHT22;5768;51.476;7.210;2023-04-03T04:29:01;3.60;18.70
11423;DHT22;5768;51.476;7.210;2023-04-03T04:34:04;3.60;18.70
11423;DHT22;5768;51.476;7.210;2023-04-03T04:39:06;3.60;18.50
11423;DHT22;5768;51.476;7.210;2023-04-03T04:44:09;3.60;18.60
11423;DHT22;5768;51.476;7.210;2023-04-03T04:49:13;3.50;18.50
11423;DHT22;5768;51.476;7.210;2023-04-03T04:54:15;3.30;18.30
11423;DHT22;5768;51.476;7.210;2023-04-03T04:59:18;3.50;18.50
11423;DHT22;5768;51.476;7.210;2023-04-03T05:04:21;3.50;18.50
11423;DHT22;5768;51.476;7.210;2023-04-03T05:09:24;3.40;18.30
11423;DHT22;5768;51.476;7.210;2023-04-03T05:14:26;3.40;18.30
11423;DHT22;5768;51.476;7.210;2023-04-03T05:19:29;3.50;18.30
11423;DHT22;5768;51.476;7.210;2023-04-03T05:24:31;3.50;18.40
11423;DHT22;5768;51.476;7.210;2023-04-03T05:29:34;3.60;18.30
11423;DHT22;5768;51.476;7.210;2023-04-03T05:34:38;3.50;18.30
11423;DHT22;5768;51.476;7.210;2023-04-03T05:39:40;3.60;18.30
11423;DHT22;5768;51.476;7.210;2023-04-03T05:44:42;3.80;18.30
11423;DHT22;5768;51.476;7.210;2023-04-03T05:49:48;3.90;18.20
11423;DHT22;5768;51.476;7.210;2023-04-03T05:54:50;3.70;18.20
11423;DHT22;5768;51.476;7.210;2023-04-03T05:59:52;3.70;18.20
11423;DHT22;5768;51.476;7.210;2023-04-03T06:04:56;3.80;18.00
11423;DHT22;5768;51.476;7.210;2023-04-03T06:09:58;3.90;18.20
11423;DHT22;5768;51.476;7.210;2023-04-03T06:15:00;4.10;18.00
11423;DHT22;5768;51.476;7.210;2023-04-03T06:20:05;4.10;17.90
11423;DHT22;5768;51.476;7.210;2023-04-03T06:25:08;4.20;17.80
11423;DHT22;5768;51.476;7.210;2023-04-03T06:30:11;4.30;17.70
11423;DHT22;5768;51.476;7.210;2023-04-03T06:35:15;4.50;17.60
11423;DHT22;5768;51.476;7.210;2023-04-03T06:40:21;4.50;17.50
11423;DHT22;5768;51.476;7.210;2023-04-03T06:45:24;4.40;17.40
11423;DHT22;5768;51.476;7.210;2023-04-03T06:50:28;4.50;17.50
11423;DHT22;5768;51.476;7.210;2023-04-03T06:55:30;4.60;17.50
11423;DHT22;5768;51.476;7.210;2023-04-03T07:00:33;4.80;17.40
11423;DHT22;5768;51.476;7.210;2023-04-03T07:05:37;4.90;17.20
11423;DHT22;5768;51.476;7.210;2023-04-03T07:10:39;5.10;17.10
11423;DHT22;5768;51.476;7.210;2023-04-03T07:15:42;5.10;17.10
11423;DHT22;5768;51.476;7.210;2023-04-03T07:20:46;5.20;16.80
11423;DHT22;5768;51.476;7.210;2023-04-03T07:25:49;5.30;16.70
11423;DHT22;5768;51.476;7.210;2023-04-03T07:31:00;5.40;16.70
11423;DHT22;5768;51.476;7.210;2023-04-03T07:36:06;5.60;16.50
11423;DHT22;5768;51.476;7.210;2023-04-03T07:41:11;5.70;16.40
11423;DHT22;5768;51.476;7.210;2023-04-03T07:46:15;5.70;16.30
11423;DHT22;5768;51.476;7.210;2023-04-03T07:51:20;5.90;16.40
11423;DHT22;5768;51.476;7.210;2023-04-03T07:56:22;6.00;16.10
11423;DHT22;5768;51.476;7.210;2023-04-03T08:01:25;6.30;16.10
11423;DHT22;5768;51.476;7.210;2023-04-03T08:06:31;6.40;16.00
11423;DHT22;5768;51.476;7.210;2023-04-03T08:11:38;6.60;16.00
11423;DHT22;5768;51.476;7.210;2023-04-03T08:16:40;6.50;15.70
11423;DHT22;5768;51.476;7.210;2023-04-03T08:21:44;6.80;15.60
11423;DHT22;5768;51.476;7.210;2023-04-03T08:26:47;6.90;15.50
11423;DHT22;5768;51.476;7.210;2023-04-03T08:31:49;6.90;15.40
11423;DHT22;5768;51.476;7.210;2023-04-03T08:36:53;6.90;15.20
11423;DHT22;5768;51.476;7.210;2023-04-03T08:41:58;7.00;15.20
11423;DHT22;5768;51.476;7.210;2023-04-03T08:47:17;7.30;15.10
11423;DHT22;5768;51.476;7.210;2023-04-03T08:52:34;7.30;14.80
11423;DHT22;5768;51.476;7.210;2023-04-03T08:57:42;7.40;14.70
11423;DHT22;5768;51.476;7.210;2023-04-03T09:02:48;7.50;14.80
11423;DHT22;5768;51.476;7.210;2023-04-03T09:07:57;7.70;14.60
11423;DHT22;5768;51.476;7.210;2023-04-03T09:13:08;7.50;14.50
11423;DHT22;5768;51.476;7.210;2023-04-03T09:18:19;7.70;14.50
11423;DHT22;5768;51.476;7.210;2023-04-03T09:23:30;7.90;14.50
11423;DHT22;5768;51.476;7.210;2023-04-03T09:28:39;7.80;14.20
11423;DHT22;5768;51.476;7.210;2023-04-03T09:33:42;8.00;14.10
11423;DHT22;5768;51.476;7.210;2023-04-03T09:39:02;8.10;13.90
11423;DHT22;5768;51.476;7.210;2023-04-03T09:44:21;8.10;13.90
11423;DHT22;5768;51.476;7.210;2023-04-03T09:49:26;8.30;13.70
11423;DHT22;5768;51.476;7.210;2023-04-03T09:54:35;8.40;13.80
11423;DHT22;5768;51.476;7.210;2023-04-03T09:59:46;8.50;13.80
11423;DHT22;5768;51.476;7.210;2023-04-03T10:04:57;8.60;13.90
11423;DHT22;5768;51.476;7.210;2023-04-03T10:10:14;8.60;15.70
11423;DHT22;5768;51.476;7.210;2023-04-03T10:15:20;8.60;15.80
11423;DHT22;5768;51.476;7.210;2023-04-03T10:20:29;9.20;15.10
11423;DHT22;5768;51.476;7.210;2023-04-03T10:25:41;9.00;15.30
11423;DHT22;5768;51.476;7.210;2023-04-03T10:30:54;9.20;15.50
11423;DHT22;5768;51.476;7.210;2023-04-03T10:36:12;8.90;15.00
11423;DHT22;5768;51.476;7.210;2023-04-03T10:41:31;9.10;15.90
11423;DHT22;5768;51.476;7.210;2023-04-03T10:46:43;9.30;15.40
11423;DHT22;5768;51.476;7.210;2023-04-03T10:51:56;9.40;14.30
11423;DHT22;5768;51.476;7.210;2023-04-03T10:57:09;9.40;15.50
11423;DHT22;5768;51.476;7.210;2023-04-03T11:02:18;9.30;14.70
11423;DHT22;5768;51.476;7.210;2023-04-03T11:07:27;9.50;13.80
11423;DHT22;5768;51.476;7.210;2023-04-03T11:12:40;9.80;14.40
11423;DHT22;5768;51.476;7.210;2023-04-03T11:17:48;9.00;13.70
11423;DHT22;5768;51.476;7.210;2023-04-03T11:23:00;9.70;13.60
11423;DHT22;5768;51.476;7.210;2023-04-03T11:28:11;9.80;13.80
11423;DHT22;5768;51.476;7.210;2023-04-03T11:33:24;9.80;13.40
11423;DHT22;5768;51.476;7.210;2023-04-03T11:38:37;9.80;13.00
11423;DHT22;5768;51.476;7.210;2023-04-03T11:43:56;9.90;13.00
11423;DHT22;5768;51.476;7.210;2023-04-03T11:49:01;10.10;12.90
11423;DHT22;5768;51.476;7.210;2023-04-03T11:59:49;10.50;13.00
11423;DHT22;5768;51.476;7.210;2023-04-03T12:05:25;10.90;12.90
11423;DHT22;5768;51.476;7.210;2023-04-03T12:10:29;11.10;13.00
11423;DHT22;5768;51.476;7.210;2023-04-03T12:15:54;11.50;12.60
11423;DHT22;5768;51.476;7.210;2023-04-03T12:20:58;12.00;13.10
11423;DHT22;5768;51.476;7.210;2023-04-03T12:26:06;12.30;14.20
11423;DHT22;5768;51.476;7.210;2023-04-03T12:31:25;12.80;13.40
11423;DHT22;5768;51.476;7.210;2023-04-03T12:36:50;13.00;13.50
11423;DHT22;5768;51.476;7.210;2023-04-03T12:42:15;13.50;14.00
11423;DHT22;5768;51.476;7.210;2023-04-03T12:47:29;13.90;13.90
11423;DHT22;5768;51.476;7.210;2023-04-03T12:52:40;15.20;14.00
11423;DHT22;5768;51.476;7.210;2023-04-03T12:57:46;16.00;13.90
11423;DHT22;5768;51.476;7.210;2023-04-03T13:02:50;16.40;14.00
11423;DHT22;5768;51.476;7.210;2023-04-03T13:07:56;17.40;13.30
11423;DHT22;5768;51.476;7.210;2023-04-03T13:13:08;18.70;13.10
11423;DHT22;5768;51.476;7.210;2023-04-03T13:18:27;19.60;12.70
11423;DHT22;5768;51.476;7.210;2023-04-03T13:23:32;20.00;13.30
11423;DHT22;5768;51.476;7.210;2023-04-03T13:28:40;21.40;13.30
11423;DHT22;5768;51.476;7.210;2023-04-03T13:33:55;22.80;13.30
11423;DHT22;5768;51.476;7.210;2023-04-03T13:44:30;24.10;12.40
11423;DHT22;5768;51.476;7.210;2023-04-03T13:59:53;25.70;5.50
11423;DHT22;5768;51.476;7.210;2023-04-03T14:04:59;26.50;5.70
11423;DHT22;5768;51.476;7.210;2023-04-03T14:10:06;27.30;5.80
11423;DHT22;5768;51.476;7.210;2023-04-03T14:15:16;28.70;8.70
11423;DHT22;5768;51.476;7.210;2023-04-03T14:20:24;28.50;7.90
11423;DHT22;5768;51.476;7.210;2023-04-03T14:25:28;29.20;7.70
11423;DHT22;5768;51.476;7.210;2023-04-03T14:30:32;29.10;8.80
11423;DHT22;5768;51.476;7.210;2023-04-03T14:40:40;29.80;4.70
11423;DHT22;5768;51.476;7.210;2023-04-03T14:45:43;30.10;4.70
11423;DHT22;5768;51.476;7.210;2023-04-03T14:50:47;30.80;4.80
11423;DHT22;5768;51.476;7.210;2023-04-03T14:55:50;31.80;4.80
11423;DHT22;5768;51.476;7.210;2023-04-03T15:01:02;31.40;4.90
11423;DHT22;5768;51.476;7.210;2023-04-03T15:06:09;31.30;4.90
11423;DHT22;5768;51.476;7.210;2023-04-03T15:11:13;31.50;4.80
11423;DHT22;5768;51.476;7.210;2023-04-03T15:16:18;31.60;4.80
11423;DHT22;5768;51.476;7.210;2023-04-03T15:21:23;32.00;4.50
11423;DHT22;5768;51.476;7.210;2023-04-03T15:26:25;32.50;4.50
11423;DHT22;5768;51.476;7.210;2023-04-03T15:31:30;32.50;4.60
11423;DHT22;5768;51.476;7.210;2023-04-03T15:36:34;32.00;4.80
11423;DHT22;5768;51.476;7.210;2023-04-03T15:41:36;32.00;4.60
11423;DHT22;5768;51.476;7.210;2023-04-03T15:46:39;32.40;4.50
11423;DHT22;5768;51.476;7.210;2023-04-03T15:51:43;32.60;4.70
11423;DHT22;5768;51.476;7.210;2023-04-03T15:56:45;32.20;4.60
11423;DHT22;5768;51.476;7.210;2023-04-03T16:01:48;32.10;4.50
11423;DHT22;5768;51.476;7.210;2023-04-03T16:06:52;31.60;4.80
11423;DHT22;5768;51.476;7.210;2023-04-03T16:11:55;30.70;4.40
11423;DHT22;5768;51.476;7.210;2023-04-03T16:16:58;30.70;4.40
11423;DHT22;5768;51.476;7.210;2023-04-03T16:22:04;31.50;4.30
11423;DHT22;5768;51.476;7.210;2023-04-03T16:27:09;32.20;4.30
11423;DHT22;5768;51.476;7.210;2023-04-03T16:32:12;31.00;4.30
11423;DHT22;5768;51.476;7.210;2023-04-03T16:37:16;30.80;4.30
11423;DHT22;5768;51.476;7.210;2023-04-03T16:42:18;30.60;4.50
11423;DHT22;5768;51.476;7.210;2023-04-03T16:47:21;30.70;4.40
11423;DHT22;5768;51.476;7.210;2023-04-03T16:52:24;29.80;4.40
11423;DHT22;5768;51.476;7.210;2023-04-03T16:57:27;29.30;4.40
11423;DHT22;5768;51.476;7.210;2023-04-03T17:02:29;27.00;4.80
11423;DHT22;5768;51.476;7.210;2023-04-03T17:07:33;24.30;5.10
11423;DHT22;5768;51.476;7.210;2023-04-03T17:12:35;21.90;5.40
11423;DHT22;5768;51.476;7.210;2023-04-03T17:17:38;21.20;5.60
11423;DHT22;5768;51.476;7.210;2023-04-03T17:22:42;20.20;5.70
11423;DHT22;5768;51.476;7.210;2023-04-03T17:27:45;18.90;5.90
11423;DHT22;5768;51.476;7.210;2023-04-03T17:32:47;18.10;6.20
11423;DHT22;5768;51.476;7.210;2023-04-03T17:37:50;17.00;6.40
11423;DHT22;5768;51.476;7.210;2023-04-03T17:42:53;15.80;6.70
11423;DHT22;5768;51.476;7.210;2023-04-03T17:47:55;15.30;7.00
11423;DHT22;5768;51.476;7.210;2023-04-03T17:52:59;15.60;6.90
11423;DHT22;5768;51.476;7.210;2023-04-03T17:58:01;15.20;6.90
11423;DHT22;5768;51.476;7.210;2023-04-03T18:03:04;14.50;7.10
11423;DHT22;5768;51.476;7.210;2023-04-03T18:08:08;13.60;7.50
11423;DHT22;5768;51.476;7.210;2023-04-03T18:13:10;13.00;7.80
11423;DHT22;5768;51.476;7.210;2023-04-03T18:18:12;12.40;7.80
11423;DHT22;5768;51.476;7.210;2023-04-03T18:23:17;12.20;8.00
11423;DHT22;5768;51.476;7.210;2023-04-03T18:28:19;11.80;8.10
11423;DHT22;5768;51.476;7.210;2023-04-03T18:33:22;11.60;8.60
11423;DHT22;5768;51.476;7.210;2023-04-03T18:38:26;11.50;8.70
11423;DHT22;5768;51.476;7.210;2023-04-03T18:43:28;11.00;9.40
11423;DHT22;5768;51.476;7.210;2023-04-03T18:48:32;10.80;9.40
11423;DHT22;5768;51.476;7.210;2023-04-03T18:53:36;10.70;9.30
11423;DHT22;5768;51.476;7.210;2023-04-03T18:58:38;10.40;9.40
11423;DHT22;5768;51.476;7.210;2023-04-03T19:03:40;10.30;9.70
11423;DHT22;5768;51.476;7.210;2023-04-03T19:08:44;10.10;9.60
11423;DHT22;5768;51.476;7.210;2023-04-03T19:13:47;9.90;10.00
11423;DHT22;5768;51.476;7.210;2023-04-03T19:18:49;9.70;9.90
11423;DHT22;5768;51.476;7.210;2023-04-03T19:23:55;9.60;9.50
11423;DHT22;5768;51.476;7.210;2023-04-03T19:28:58;9.50;9.60
11423;DHT22;5768;51.476;7.210;2023-04-03T19:34:01;9.40;9.70
11423;DHT22;5768;51.476;7.210;2023-04-03T19:39:05;9.30;9.90
11423;DHT22;5768;51.476;7.210;2023-04-03T19:44:08;9.10;10.00
11423;DHT22;5768;51.476;7.210;2023-04-03T19:49:15;9.10;9.80
11423;DHT22;5768;51.476;7.210;2023-04-03T19:54:21;8.90;9.50
11423;DHT22;5768;51.476;7.210;2023-04-03T19:59:24;8.80;9.80
11423;DHT22;5768;51.476;7.210;2023-04-03T20:04:26;8.40;9.80
11423;DHT22;5768;51.476;7.210;2023-04-03T20:09:30;8.60;10.10
11423;DHT22;5768;51.476;7.210;2023-04-03T20:14:36;8.50;9.60
11423;DHT22;5768;51.476;7.210;2023-04-03T20:19:39;8.30;9.50
11423;DHT22;5768;51.476;7.210;2023-04-03T20:24:43;8.10;9.50
11423;DHT22;5768;51.476;7.210;2023-04-03T20:29:46;8.10;9.80
11423;DHT22;5768;51.476;7.210;2023-04-03T20:34:49;8.10;10.20
11423;DHT22;5768;51.476;7.210;2023-04-03T20:39:54;8.00;10.10
11423;DHT22;5768;51.476;7.210;2023-04-03T20:45:00;8.10;10.00
11423;DHT22;5768;51.476;7.210;2023-04-03T20:50:02;7.90;10.10
11423;DHT22;5768;51.476;7.210;2023-04-03T20:55:07;7.60;10.20
11423;DHT22;5768;51.476;7.210;2023-04-03T21:00:12;7.60;10.30
11423;DHT22;5768;51.476;7.210;2023-04-03T21:05:17;7.50;10.60
11423;DHT22;5768;51.476;7.210;2023-04-03T21:21:29;7.20;10.40
11423;DHT22;5768;51.476;7.210;2023-04-03T21:26:32;7.10;10.40
11423;DHT22;5768;51.476;7.210;2023-04-03T21:31:52;7.10;10.30
11423;DHT22;5768;51.476;7.210;2023-04-03T21:37:02;7.00;10.30
11423;DHT22;5768;51.476;7.210;2023-04-03T21:42:11;6.90;10.30
11423;DHT22;5768;51.476;7.210;2023-04-03T21:47:14;7.00;10.30
11423;DHT22;5768;51.476;7.210;2023-04-03T21:52:21;6.80;10.40
11423;DHT22;5768;51.476;7.210;2023-04-03T21:57:24;6.80;10.40
11423;DHT22;5768;51.476;7.210;2023-04-03T22:02:26;6.70;10.40
11423;DHT22;5768;51.476;7.210;2023-04-03T22:07:32;6.70;10.40
11423;DHT22;5768;51.476;7.210;2023-04-03T22:12:44;6.60;10.40
11423;DHT22;5768;51.476;7.210;2023-04-03T22:17:46;6.50;10.50
11423;DHT22;5768;51.476;7.210;2023-04-03T22:22:50;6.40;10.50
11423;DHT22;5768;51.476;7.210;2023-04-03T22:27:52;6.30;10.50
11423;DHT22;5768;51.476;7.210;2023-04-03T22:32:55;6.50;10.70
11423;DHT22;5768;51.476;7.210;2023-04-03T22:37:59;6.30;10.70
11423;DHT22;5768;51.476;7.210;2023-04-03T22:43:02;6.20;10.70
11423;DHT22;5768;51.476;7.210;2023-04-03T22:48:05;6.10;10.70
11423;DHT22;5768;51.476;7.210;2023-04-03T22:53:09;6.00;10.80
11423;DHT22;5768;51.476;7.210;2023-04-03T22:58:11;5.90;11.10
11423;DHT22;5768;51.476;7.210;2023-04-03T23:03:14;7.10;10.60
11423;DHT22;5768;51.476;7.210;2023-04-03T23:08:18;5.80;10.30
11423;DHT22;5768;51.476;7.210;2023-04-03T23:13:20;5.50;10.30
11423;DHT22;5768;51.476;7.210;2023-04-03T23:18:26;5.70;10.30
11423;DHT22;5768;51.476;7.210;2023-04-03T23:23:31;5.50;10.40
11423;DHT22;5768;51.476;7.210;2023-04-03T23:28:33;5.40;10.40
11423;DHT22;5768;51.476;7.210;2023-04-03T23:33:37;5.40;10.40
11423;DHT22;5768;51.476;7.210;2023-04-03T23:38:47;5.30;10.50
11423;DHT22;5768;51.476;7.210;2023-04-03T23:43:50;5.20;10.60
11423;DHT22;5768;51.476;7.210;2023-04-03T23:48:52;5.10;10.60
11423;DHT22;5768;51.476;7.210;2023-04-03T23:53:56;5.00;10.60
11423;DHT22;5768;51.476;7.210;2023-04-03T23:58:59;4.90;10.70
